Carter Lake, IA (51510)

3:32 PM CDT on September 30, 2016 (GMT -0500)
CarterLake.org | | Change Station

Elev 980 ft 41.29 °N, 95.92 °W | Updated 6 seconds ago

Partly Cloudy
Partly Cloudy
73.5 °F
Feels Like 77 °F
N
3.2
Wind Variable Wind from NE
Gusts 6.9 mph

Today
High -- | Low -- °F
--% Chance of Precip.
Yesterday
High -- | Low -- °F
Precip. -- in
Pressure 30.18 in
Visibility 10.0 miles
Clouds Few 25000 ft
Heat Index 77 °F
Dew Point 46 °F
Humidity 37%
Rainfall 0.00 in
Snow Depth Not available.
7:19 AM 7:06 PM
Waning Crescent, 0% visible
METAR KOMA 301952Z 03007KT 360V070 10SM FEW250 24/07 A3018 RMK AO2 SLP218 T02390072
Pressure 30.18 in
Visibility 10.0 miles
Clouds Few 25000 ft
Heat Index 77 °F
Dew Point 46 °F
Humidity 37%
Rainfall 0.00 in
Snow Depth Not available.
7:19 AM 7:06 PM
Waning Crescent, 0% visible
METAR KOMA 301952Z 03007KT 360V070 10SM FEW250 24/07 A3018 RMK AO2 SLP218 T02390072

10-Day Weather Forecast

Almanac

Astronomy

Sep. 30, 2016 Rise Set
Actual Time
Civil Twilight
Nautical Twilight
Astronomical Twilight
Moon
Length of Visible Light
Length of Day
Tomorrow will be .
, % of the Moon is Illuminated

Today's Extremes

State Highs State Lows

Community

WunderPhotos

Upload Photos

1,942,764 photos uploaded!

WunderBlog® & News

Nearby

Air Quality

  Air Quality AQ Index Pollutant
Not available.

Snow Depth

Station Depth Elevation

Earthquake Activity

City Distance Mag. Time & Date
Minimum magnitude displayed is 2.5.

Coastal Water Temperatures

Place Temperature

Stations

Nearby Weather Stations

Station Location Temp. Windchill Dew Point Humidity Wind Precip. Elev Updated Type
                   

Watches & Warnings

There are currently no watches in effect.